createdAt,value
2022-12-13T00:01:48.077Z,-5.02
2022-12-13T00:04:16.459Z,-4.68
2022-12-13T00:06:44.237Z,-4.75
2022-12-13T00:09:14.553Z,-4.99
2022-12-13T00:11:42.401Z,-5.48
2022-12-13T00:14:11.709Z,-5.22
2022-12-13T00:16:39.096Z,-4.82
2022-12-13T00:19:06.747Z,-4.76
2022-12-13T00:21:34.431Z,-4.78
2022-12-13T00:24:02.186Z,-4.88
2022-12-13T00:26:31.746Z,-4.99
2022-12-13T00:29:00.457Z,-5.08
2022-12-13T00:34:18.812Z,-5.17
2022-12-13T00:36:46.721Z,-4.73
2022-12-13T00:39:16.642Z,-4.80
2022-12-13T00:41:44.916Z,-5.15
2022-12-13T00:44:13.216Z,-5.16
2022-12-13T00:46:41.421Z,-5.21
2022-12-13T00:49:10.543Z,-5.29
2022-12-13T00:51:38.673Z,-5.33
2022-12-13T00:54:06.700Z,-5.57
2022-12-13T00:56:34.517Z,-5.54
2022-12-13T00:59:01.862Z,-5.05
2022-12-13T01:01:32.404Z,-5.14
2022-12-13T01:04:02.563Z,-5.20
2022-12-13T01:06:36.317Z,-5.26
2022-12-13T01:09:06.095Z,-5.35
2022-12-13T01:11:33.765Z,-5.41
2022-12-13T01:14:01.110Z,-5.31
2022-12-13T01:16:28.589Z,-5.32
2022-12-13T01:18:57.692Z,-5.44
2022-12-13T01:21:24.994Z,-5.08
2022-12-13T01:23:52.399Z,-4.99
2022-12-13T01:26:21.855Z,-5.32
2022-12-13T01:28:49.599Z,-5.28
2022-12-13T01:31:19.594Z,-5.19
2022-12-13T01:33:47.978Z,-5.03
2022-12-13T01:36:18.164Z,-5.08
2022-12-13T01:38:45.603Z,-5.04
2022-12-13T01:41:20.880Z,-4.99
2022-12-13T01:44:00.878Z,-5.03
2022-12-13T01:46:28.907Z,-5.30
2022-12-13T01:48:59.277Z,-5.18
2022-12-13T01:51:37.320Z,-5.28
2022-12-13T01:54:08.768Z,-5.26
2022-12-13T01:56:47.271Z,-5.24
2022-12-13T01:59:18.137Z,-5.56
2022-12-13T02:01:50.547Z,-5.28
2022-12-13T02:04:26.147Z,-5.22
2022-12-13T02:06:55.945Z,-5.32
2022-12-13T02:09:23.568Z,-5.28
2022-12-13T02:11:51.764Z,-5.49
2022-12-13T02:14:19.089Z,-5.21
2022-12-13T02:17:12.718Z,-5.11
2022-12-13T02:19:58.047Z,-5.34
2022-12-13T02:22:44.041Z,-5.49
2022-12-13T02:25:28.596Z,-5.47
2022-12-13T02:28:36.402Z,-5.55
2022-12-13T02:31:21.573Z,-5.70
2022-12-13T02:34:26.177Z,-5.61
2022-12-13T02:37:01.944Z,-5.54
2022-12-13T02:39:41.286Z,-5.87
2022-12-13T02:42:22.305Z,-5.78
2022-12-13T02:45:17.324Z,-5.68
2022-12-13T02:47:52.259Z,-5.47
2022-12-13T02:50:22.014Z,-5.52
2022-12-13T02:52:51.504Z,-5.45
2022-12-13T02:55:18.889Z,-5.50
2022-12-13T02:57:48.093Z,-5.28
2022-12-13T03:00:19.424Z,-5.49
2022-12-13T03:03:10.565Z,-5.27
2022-12-13T03:06:15.448Z,-5.05
2022-12-13T03:09:08.183Z,-5.57
2022-12-13T03:12:23.777Z,-5.87
2022-12-13T03:15:10.806Z,-5.56
2022-12-13T03:17:44.900Z,-5.32
2022-12-13T03:20:22.958Z,-5.26
2022-12-13T03:22:52.405Z,-5.28
2022-12-13T03:25:30.879Z,-5.56
2022-12-13T03:28:01.214Z,-5.75
2022-12-13T03:30:32.781Z,-5.92
2022-12-13T03:33:00.641Z,-6.03
2022-12-13T03:35:34.400Z,-6.08
2022-12-13T03:38:21.984Z,-6.05
2022-12-13T03:41:00.629Z,-6.04
2022-12-13T03:43:28.942Z,-6.04
2022-12-13T03:45:56.343Z,-5.99
2022-12-13T03:48:24.319Z,-5.75
2022-12-13T03:50:53.602Z,-5.91
2022-12-13T03:53:32.779Z,-5.93
2022-12-13T03:56:04.977Z,-6.07
2022-12-13T03:58:36.043Z,-5.92
2022-12-13T04:01:16.900Z,-5.84
2022-12-13T04:03:47.170Z,-5.69
2022-12-13T04:06:21.725Z,-6.04
2022-12-13T04:08:52.441Z,-6.22
2022-12-13T04:11:42.268Z,-6.02
2022-12-13T04:14:22.706Z,-6.01
2022-12-13T04:16:52.243Z,-5.76
2022-12-13T04:19:23.757Z,-6.04
2022-12-13T04:21:55.188Z,-5.82
2022-12-13T04:24:31.874Z,-6.11
2022-12-13T04:27:01.428Z,-6.21
2022-12-13T04:29:34.322Z,-6.34
2022-12-13T04:32:26.126Z,-6.24
2022-12-13T04:35:01.163Z,-6.12
2022-12-13T04:37:29.607Z,-6.21
2022-12-13T04:40:00.723Z,-6.05
2022-12-13T04:42:28.647Z,-5.82
2022-12-13T04:44:56.003Z,-6.00
2022-12-13T04:47:23.321Z,-6.11
2022-12-13T04:49:50.665Z,-5.96
2022-12-13T04:52:22.152Z,-6.27
2022-12-13T04:54:55.868Z,-6.01
2022-12-13T04:57:24.030Z,-5.71
2022-12-13T04:59:52.311Z,-5.90
2022-12-13T05:02:23.539Z,-5.90
2022-12-13T05:04:53.838Z,-5.94
2022-12-13T05:07:23.601Z,-6.19
2022-12-13T05:09:50.884Z,-6.56
2022-12-13T05:12:22.655Z,-6.55
2022-12-13T05:14:54.000Z,-6.69
2022-12-13T05:17:21.557Z,-6.54
2022-12-13T05:19:48.882Z,-6.31
2022-12-13T05:22:20.441Z,-6.29
2022-12-13T05:24:48.927Z,-5.98
2022-12-13T05:27:24.881Z,-6.16
2022-12-13T05:30:03.737Z,-6.28
2022-12-13T05:32:43.465Z,-6.58
2022-12-13T05:35:14.457Z,-6.41
2022-12-13T05:37:53.851Z,-6.70
2022-12-13T05:40:32.322Z,-6.65
2022-12-13T05:43:01.458Z,-6.53
2022-12-13T05:45:33.088Z,-6.92
2022-12-13T05:48:00.545Z,-6.92
2022-12-13T05:50:27.868Z,-7.07
2022-12-13T05:52:55.220Z,-6.65
2022-12-13T05:55:22.519Z,-6.89
2022-12-13T05:57:50.361Z,-7.26
2022-12-13T06:00:30.022Z,-6.87
2022-12-13T06:03:00.628Z,-6.87
2022-12-13T06:05:30.390Z,-6.99
2022-12-13T06:07:58.609Z,-7.36
2022-12-13T06:10:34.921Z,-7.43
2022-12-13T06:13:22.039Z,-7.31
2022-12-13T06:15:52.371Z,-7.57
2022-12-13T06:18:32.651Z,-7.41
2022-12-13T06:21:04.136Z,-7.69
2022-12-13T06:23:32.312Z,-7.87
2022-12-13T06:26:02.184Z,-7.67
2022-12-13T06:28:29.440Z,-7.64
2022-12-13T06:31:00.433Z,-7.66
2022-12-13T06:33:28.425Z,-7.86
2022-12-13T06:35:58.919Z,-7.68
2022-12-13T06:38:31.153Z,-7.76
2022-12-13T06:41:11.665Z,-7.83
2022-12-13T06:43:43.071Z,-7.49
2022-12-13T06:46:10.738Z,-7.58
2022-12-13T06:48:40.525Z,-7.61
2022-12-13T06:51:09.498Z,-7.31
2022-12-13T06:53:40.333Z,-7.21
2022-12-13T06:56:11.841Z,-7.10
2022-12-13T06:58:40.207Z,-7.18
2022-12-13T07:01:15.194Z,-6.95
2022-12-13T07:03:54.646Z,-6.57
2022-12-13T07:06:23.315Z,-6.51
2022-12-13T07:08:53.617Z,-6.52
2022-12-13T07:11:23.802Z,-6.38
2022-12-13T07:13:51.989Z,-6.38
2022-12-13T07:16:19.945Z,-6.39
2022-12-13T07:18:48.277Z,-6.49
2022-12-13T07:21:21.743Z,-6.45
2022-12-13T07:23:59.329Z,-6.42
2022-12-13T07:26:26.787Z,-6.40
2022-12-13T07:28:55.593Z,-6.24
2022-12-13T07:31:24.623Z,-6.06
2022-12-13T07:33:52.462Z,-6.07
2022-12-13T07:36:21.890Z,-5.90
2022-12-13T07:38:57.185Z,-6.02
2022-12-13T07:41:26.185Z,-5.56
2022-12-13T07:43:56.190Z,-5.41
2022-12-13T07:46:33.186Z,-5.30
2022-12-13T07:49:02.778Z,-5.39
2022-12-13T07:51:30.121Z,-5.10
2022-12-13T07:53:57.721Z,-4.78
2022-12-13T07:56:25.069Z,-4.37
2022-12-13T07:58:52.354Z,-4.56
2022-12-13T08:01:19.755Z,-4.32
2022-12-13T08:03:50.274Z,-4.44
2022-12-13T08:06:19.333Z,-4.32
2022-12-13T08:08:46.884Z,-4.18
2022-12-13T08:11:16.677Z,-4.27
2022-12-13T08:13:44.214Z,-3.60
2022-12-13T08:16:26.286Z,-3.45
2022-12-13T08:19:02.527Z,-2.95
2022-12-13T08:24:29.106Z,-2.87
2022-12-13T08:27:01.446Z,-2.56
2022-12-13T08:29:35.788Z,-2.54
2022-12-13T08:32:06.889Z,-2.30
2022-12-13T08:34:34.323Z,-2.49
2022-12-13T08:37:03.532Z,-2.27
2022-12-13T08:39:35.635Z,-2.03
2022-12-13T08:42:16.352Z,-2.00
2022-12-13T08:44:50.073Z,-1.98
2022-12-13T08:47:23.082Z,-1.80
2022-12-13T08:50:02.353Z,-1.91
2022-12-13T08:52:40.170Z,-1.76
2022-12-13T08:55:15.732Z,-1.62
2022-12-13T08:57:43.814Z,-1.40
2022-12-13T09:00:14.781Z,-1.45
2022-12-13T09:02:42.664Z,-1.50
2022-12-13T09:05:11.247Z,-1.24
2022-12-13T09:07:43.013Z,-1.37
2022-12-13T09:10:27.338Z,-1.14
2022-12-13T09:13:01.717Z,-1.14
2022-12-13T09:15:33.763Z,-0.94
2022-12-13T09:18:04.908Z,-1.01
2022-12-13T09:20:40.963Z,-1.08
2022-12-13T09:23:14.044Z,-1.06
2022-12-13T09:26:05.619Z,-1.06
2022-12-13T09:28:37.000Z,-0.74
2022-12-13T09:31:13.700Z,-0.66
2022-12-13T09:33:42.023Z,-0.59
2022-12-13T09:36:13.129Z,-0.61
2022-12-13T09:38:40.571Z,-0.75
2022-12-13T09:41:30.008Z,-0.99
2022-12-13T09:44:32.545Z,-0.83
2022-12-13T09:47:02.434Z,-0.64
2022-12-13T09:49:41.598Z,-0.83
2022-12-13T09:52:21.917Z,-1.04
2022-12-13T09:54:55.801Z,-0.91
2022-12-13T09:57:34.376Z,-0.78
2022-12-13T10:00:06.099Z,-1.05
2022-12-13T10:02:51.863Z,-0.92
2022-12-13T10:05:39.198Z,-0.60
2022-12-13T10:08:21.016Z,-0.60
2022-12-13T10:10:50.293Z,-0.45
2022-12-13T10:13:22.044Z,-0.22
2022-12-13T10:16:02.468Z,-0.23
2022-12-13T10:18:41.888Z,-0.07
2022-12-13T10:21:18.276Z,-0.31
2022-12-13T10:24:24.776Z,-0.20
2022-12-13T10:26:38.048Z,-0.42
2022-12-13T10:29:06.931Z,-0.39
2022-12-13T10:31:46.636Z,-0.33
2022-12-13T10:34:39.227Z,-0.37
2022-12-13T10:37:29.889Z,-0.08
2022-12-13T10:39:58.278Z,-0.09
2022-12-13T10:42:32.192Z,0.19
2022-12-13T10:45:10.774Z,-0.03
2022-12-13T10:47:38.011Z,-0.10
2022-12-13T10:50:05.708Z,0.13
2022-12-13T10:52:44.766Z,0.11
2022-12-13T10:55:32.333Z,0.25
2022-12-13T10:58:03.662Z,0.47
2022-12-13T11:00:38.850Z,0.35
2022-12-13T11:03:07.336Z,0.42
2022-12-13T11:05:38.263Z,0.62
2022-12-13T11:08:16.104Z,0.62
2022-12-13T11:10:43.803Z,0.44
2022-12-13T11:13:25.522Z,0.33
2022-12-13T11:15:57.001Z,0.43
2022-12-13T11:18:27.269Z,0.51
2022-12-13T11:21:00.769Z,0.47
2022-12-13T11:23:46.794Z,0.39
2022-12-13T11:26:24.391Z,0.50
2022-12-13T11:29:18.710Z,0.50
2022-12-13T11:31:56.322Z,0.75
2022-12-13T11:34:42.118Z,0.95
2022-12-13T11:37:24.231Z,0.64
2022-12-13T11:40:01.257Z,0.64
2022-12-13T11:42:41.251Z,0.87
2022-12-13T11:45:22.879Z,0.67
2022-12-13T11:48:16.894Z,0.45
2022-12-13T11:50:47.569Z,0.36
2022-12-13T11:53:42.492Z,0.46
2022-12-13T11:56:28.723Z,0.00
2022-12-13T11:59:27.132Z,0.36
2022-12-13T12:02:50.380Z,0.39
2022-12-13T12:05:38.377Z,0.61
2022-12-13T12:08:37.733Z,1.13
2022-12-13T12:11:28.156Z,1.21
2022-12-13T12:14:21.705Z,1.26
2022-12-13T12:16:51.561Z,1.10
2022-12-13T12:19:22.792Z,1.10
2022-12-13T12:22:15.504Z,0.90
2022-12-13T12:24:57.521Z,1.21
2022-12-13T12:27:28.590Z,1.43
2022-12-13T12:30:04.274Z,1.33
2022-12-13T12:32:41.872Z,1.13
2022-12-13T12:35:55.197Z,0.88
2022-12-13T12:38:59.885Z,0.86
2022-12-13T12:41:27.178Z,1.12
2022-12-13T12:44:31.547Z,1.00
2022-12-13T12:50:09.095Z,0.44
2022-12-13T12:52:55.137Z,0.36
2022-12-13T12:55:53.784Z,0.39
2022-12-13T12:58:39.581Z,0.54
2022-12-13T13:01:23.307Z,0.52
2022-12-13T13:04:01.469Z,0.36
2022-12-13T13:06:35.166Z,0.30
2022-12-13T13:09:08.829Z,0.40
2022-12-13T13:11:43.106Z,0.36
2022-12-13T13:14:34.113Z,0.41
2022-12-13T13:17:23.892Z,0.44
2022-12-13T13:20:14.011Z,0.29
2022-12-13T13:22:44.368Z,0.22
2022-12-13T13:26:07.738Z,0.25
2022-12-13T13:28:28.425Z,-0.06
2022-12-13T13:31:03.728Z,-0.08
2022-12-13T13:33:51.130Z,0.02
2022-12-13T13:36:44.780Z,0.04
2022-12-13T13:39:39.721Z,-0.11
2022-12-13T13:42:19.766Z,0.04
2022-12-13T13:44:49.827Z,-0.12
2022-12-13T13:47:20.249Z,-0.08
2022-12-13T13:50:02.904Z,-0.14
2022-12-13T13:53:08.673Z,-0.20
2022-12-13T13:56:14.018Z,-0.19
2022-12-13T13:59:19.438Z,-0.38
2022-12-13T14:02:29.438Z,-0.37
2022-12-13T14:05:17.710Z,-0.46
2022-12-13T14:08:20.603Z,-0.45
2022-12-13T14:11:00.311Z,-0.61
2022-12-13T14:13:46.400Z,-0.80
2022-12-13T14:16:51.107Z,-1.00
2022-12-13T14:19:27.541Z,-1.05
2022-12-13T14:22:15.779Z,-1.20
2022-12-13T14:24:55.836Z,-1.33
2022-12-13T14:27:26.207Z,-1.49
2022-12-13T14:29:58.320Z,-1.48
2022-12-13T14:32:29.159Z,-1.81
2022-12-13T14:34:57.751Z,-1.80
2022-12-13T14:37:30.633Z,-2.01
2022-12-13T14:39:59.772Z,-1.88
2022-12-13T14:42:34.004Z,-2.01
2022-12-13T14:45:35.141Z,-2.21
2022-12-13T14:48:12.243Z,-2.29
2022-12-13T14:50:43.848Z,-2.41
2022-12-13T14:53:39.296Z,-2.40
2022-12-13T14:56:27.533Z,-2.49
2022-12-13T14:59:01.935Z,-2.61
2022-12-13T15:01:37.745Z,-2.78
2022-12-13T15:04:29.452Z,-2.84
2022-12-13T15:07:02.900Z,-3.10
2022-12-13T15:09:34.261Z,-3.08
2022-12-13T15:12:23.449Z,-2.95
2022-12-13T15:15:19.065Z,-2.93
2022-12-13T15:17:46.426Z,-3.31
2022-12-13T15:20:25.379Z,-3.02
2022-12-13T15:23:04.511Z,-3.08
2022-12-13T15:25:37.956Z,-3.22
2022-12-13T15:28:06.168Z,-3.07
2022-12-13T15:30:35.424Z,-3.19
2022-12-13T15:33:30.841Z,-2.94
2022-12-13T15:36:27.056Z,-2.99
2022-12-13T15:38:57.049Z,-3.19
2022-12-13T15:41:29.043Z,-3.04
2022-12-13T15:44:00.898Z,-3.09
2022-12-13T15:46:38.189Z,-3.24
2022-12-13T15:49:22.623Z,-3.05
2022-12-13T15:52:02.134Z,-3.02
2022-12-13T15:54:29.889Z,-3.26
2022-12-13T15:57:16.885Z,-3.06
2022-12-13T15:59:45.154Z,-3.08
2022-12-13T16:02:21.409Z,-3.08
2022-12-13T16:04:49.706Z,-3.23
2022-12-13T16:07:31.986Z,-3.08
2022-12-13T16:09:59.471Z,-3.00
2022-12-13T16:12:38.623Z,-3.06
2022-12-13T16:15:29.839Z,-3.11
2022-12-13T16:18:16.359Z,-2.95
2022-12-13T16:20:44.965Z,-3.18
2022-12-13T16:23:26.533Z,-3.16
2022-12-13T16:25:55.155Z,-3.01
2022-12-13T16:28:26.235Z,-2.91
2022-12-13T16:31:02.444Z,-2.65
2022-12-13T16:33:29.915Z,-2.76
2022-12-13T16:35:57.505Z,-2.50
2022-12-13T16:38:27.487Z,-2.65
2022-12-13T16:40:59.772Z,-2.65
2022-12-13T16:43:33.872Z,-2.68
2022-12-13T16:47:12.517Z,-2.89
2022-12-13T16:48:52.246Z,-2.79
2022-12-13T16:51:22.300Z,-2.58
2022-12-13T16:53:49.673Z,-2.47
2022-12-13T16:56:22.189Z,-2.58
2022-12-13T16:58:50.634Z,-2.27
2022-12-13T17:01:20.493Z,-2.09
2022-12-13T17:03:48.642Z,-2.14
2022-12-13T17:06:21.533Z,-2.28
2022-12-13T17:08:48.970Z,-2.38
2022-12-13T17:11:18.320Z,-2.26
2022-12-13T17:13:48.221Z,-1.96
2022-12-13T17:16:16.120Z,-2.18
2022-12-13T17:18:43.533Z,-1.98
2022-12-13T17:21:13.189Z,-1.93
2022-12-13T17:23:40.743Z,-2.05
2022-12-13T17:26:10.781Z,-2.28
2022-12-13T17:28:38.338Z,-2.52
2022-12-13T17:31:10.085Z,-2.54
2022-12-13T17:33:38.076Z,-2.63
2022-12-13T17:36:06.852Z,-2.61
2022-12-13T17:38:34.879Z,-2.65
2022-12-13T17:41:02.481Z,-2.95
2022-12-13T17:43:34.725Z,-2.81
2022-12-13T17:46:05.810Z,-2.77
2022-12-13T17:48:40.015Z,-2.68
2022-12-13T17:51:09.986Z,-2.77
2022-12-13T17:53:40.273Z,-2.89
2022-12-13T17:56:09.388Z,-2.69
2022-12-13T17:58:38.534Z,-2.86
2022-12-13T18:01:11.005Z,-2.82
2022-12-13T18:03:38.534Z,-2.87
2022-12-13T18:06:10.231Z,-2.58
2022-12-13T18:08:39.518Z,-2.60
2022-12-13T18:11:31.881Z,-2.88
2022-12-13T18:13:55.745Z,-2.53
2022-12-13T18:16:30.420Z,-2.36
2022-12-13T18:19:05.989Z,-2.42
2022-12-13T18:21:35.343Z,-2.53
2022-12-13T18:24:02.914Z,-2.18
2022-12-13T18:26:30.255Z,-1.99
2022-12-13T18:28:57.596Z,-2.12
2022-12-13T18:31:25.339Z,-2.31
2022-12-13T18:33:54.021Z,-2.33
2022-12-13T18:36:23.730Z,-2.25
2022-12-13T18:38:53.869Z,-2.23
2022-12-13T18:41:24.195Z,-2.43
2022-12-13T18:43:59.512Z,-2.40
2022-12-13T18:46:28.850Z,-2.21
2022-12-13T18:48:57.334Z,-2.26
2022-12-13T18:51:25.192Z,-2.28
2022-12-13T18:53:53.482Z,-2.36
2022-12-13T18:56:20.985Z,-2.60
2022-12-13T18:58:49.351Z,-2.45
2022-12-13T19:01:18.662Z,-2.41
2022-12-13T19:03:47.918Z,-2.40
2022-12-13T19:06:20.829Z,-2.53
2022-12-13T19:08:49.593Z,-2.42
2022-12-13T19:11:18.598Z,-2.56
2022-12-13T19:13:46.452Z,-2.50
2022-12-13T19:16:16.218Z,-2.68
2022-12-13T19:18:43.581Z,-2.44
2022-12-13T19:21:14.349Z,-2.02
2022-12-13T19:23:42.717Z,-2.02
2022-12-13T19:26:13.348Z,-2.26
2022-12-13T19:28:41.990Z,-1.97
2022-12-13T19:31:11.985Z,-1.68
2022-12-13T19:33:42.076Z,-1.68
2022-12-13T19:36:11.040Z,-1.64
2022-12-13T19:38:39.726Z,-1.72
2022-12-13T19:41:13.459Z,-1.87
2022-12-13T19:43:41.562Z,-2.00
2022-12-13T19:46:10.009Z,-2.10
2022-12-13T19:48:40.049Z,-2.06
2022-12-13T19:51:08.410Z,-1.98
2022-12-13T19:53:38.033Z,-1.93
2022-12-13T19:56:11.668Z,-2.17
2022-12-13T19:58:41.140Z,-2.08
2022-12-13T20:01:08.682Z,-1.61
2022-12-13T20:03:40.346Z,-1.58
2022-12-13T20:06:10.088Z,-1.52
2022-12-13T20:08:37.642Z,-1.63
2022-12-13T20:11:11.701Z,-1.75
2022-12-13T20:13:39.694Z,-2.03
2022-12-13T20:16:07.573Z,-2.03
2022-12-13T20:18:35.145Z,-1.80
2022-12-13T20:21:13.017Z,-1.63
2022-12-13T20:23:48.698Z,-1.90
2022-12-13T20:26:20.436Z,-1.69
2022-12-13T20:28:49.041Z,-1.57
2022-12-13T20:31:22.587Z,-1.72
2022-12-13T20:34:02.277Z,-1.83
2022-12-13T20:36:31.541Z,-2.00
2022-12-13T20:39:01.018Z,-2.02
2022-12-13T20:41:30.329Z,-1.97
2022-12-13T20:44:00.587Z,-1.93
2022-12-13T20:46:29.131Z,-1.85
2022-12-13T20:48:58.395Z,-1.79
2022-12-13T20:51:27.734Z,-1.97
2022-12-13T20:53:55.861Z,-2.15
2022-12-13T20:56:25.857Z,-2.17
2022-12-13T20:58:53.547Z,-1.97
2022-12-13T21:01:20.819Z,-1.90
2022-12-13T21:03:48.299Z,-2.14
2022-12-13T21:06:15.782Z,-2.14
2022-12-13T21:08:52.296Z,-2.08
2022-12-13T21:11:25.452Z,-1.86
2022-12-13T21:14:15.160Z,-1.74
2022-12-13T21:16:53.261Z,-1.82
2022-12-13T21:19:26.503Z,-1.79
2022-12-13T21:21:54.906Z,-1.65
2022-12-13T21:24:24.650Z,-1.77
2022-12-13T21:26:52.684Z,-2.07
2022-12-13T21:29:20.053Z,-2.40
2022-12-13T21:31:50.094Z,-2.36
2022-12-13T21:34:18.889Z,-2.29
2022-12-13T21:36:54.818Z,-2.48
2022-12-13T21:39:27.836Z,-2.26
2022-12-13T21:41:58.511Z,-2.41
2022-12-13T21:44:25.888Z,-2.09
2022-12-13T21:47:12.869Z,-2.30
2022-12-13T21:49:48.471Z,-2.31
2022-12-13T21:52:17.062Z,-1.98
2022-12-13T21:54:46.666Z,-1.90
2022-12-13T21:57:32.412Z,-1.77
2022-12-13T21:59:59.825Z,-1.56
2022-12-13T22:02:29.959Z,-1.76
2022-12-13T22:04:58.474Z,-1.76
2022-12-13T22:07:28.419Z,-2.12
2022-12-13T22:09:56.683Z,-1.86
2022-12-13T22:12:32.632Z,-1.64
2022-12-13T22:15:00.018Z,-1.95
2022-12-13T22:17:35.705Z,-1.60
2022-12-13T22:20:10.171Z,-1.66
2022-12-13T22:22:39.126Z,-1.48
2022-12-13T22:25:07.468Z,-1.74
2022-12-13T22:27:35.001Z,-1.81
2022-12-13T22:30:02.902Z,-1.74
2022-12-13T22:32:32.279Z,-1.84
2022-12-13T22:34:59.721Z,-1.89
2022-12-13T22:37:27.484Z,-1.64
2022-12-13T22:39:54.837Z,-1.43
2022-12-13T22:42:22.434Z,-1.54
2022-12-13T22:44:49.766Z,-1.39
2022-12-13T22:47:19.123Z,-1.56
2022-12-13T22:49:48.900Z,-1.92
2022-12-13T22:52:17.094Z,-1.85
2022-12-13T22:54:44.782Z,-1.98
2022-12-13T22:57:12.282Z,-1.92
2022-12-13T22:59:39.772Z,-2.08
2022-12-13T23:02:07.780Z,-2.01
2022-12-13T23:04:35.255Z,-2.00
2022-12-13T23:07:02.561Z,-2.03
2022-12-13T23:09:30.950Z,-1.91
2022-12-13T23:12:17.121Z,-2.07
2022-12-13T23:14:44.419Z,-2.14
2022-12-13T23:17:11.905Z,-2.01
2022-12-13T23:19:51.558Z,-2.05
2022-12-13T23:22:23.623Z,-1.95
2022-12-13T23:24:53.717Z,-2.19
2022-12-13T23:27:23.266Z,-1.99
2022-12-13T23:29:50.689Z,-2.11
2022-12-13T23:32:18.372Z,-2.14
2022-12-13T23:34:45.653Z,-1.99
2022-12-13T23:37:13.796Z,-2.20
2022-12-13T23:39:41.794Z,-2.06
2022-12-13T23:42:09.275Z,-1.84
2022-12-13T23:44:36.950Z,-1.76
2022-12-13T23:47:04.238Z,-1.37
2022-12-13T23:49:31.677Z,-1.61
2022-12-13T23:51:59.161Z,-1.65
2022-12-13T23:54:27.393Z,-1.57
2022-12-13T23:56:54.667Z,-1.50
2022-12-13T23:59:22.058Z,-1.84
